Weather observations for the past three days for
Elizabethtown Addington Field Airport
Metric (Imperial)
Date Time (edt) Wind (kph) Vis. (km) Weather Sky Cond. Temperature (ºC) Relative Humidity Wind Chill (°C) Heat Index (°C) Pressure Precipitation (cm)
Air Dwpt 6 hour altimeter (cm) sea level (mb) 1 hr 3 hr 6 hr
Max. Min.
09 07:35 Calm 8.05 Rain BKN042 OVC070 13 10.3 84% 75.67 0.0 0.03
09 07:15 Calm 16.09 Overcast SCT042 SCT070 OVC090 13.3 9.8 80% 75.67 0.0
09 06:55 Calm 16.09 Overcast BKN090 OVC110 13.2 9.8 80% 75.62 0.0
09 06:35 Calm 16.09 Overcast OVC100 13.1 9.7 80% 75.57 0.0
09 06:15 Calm 16.09 Overcast SCT060 OVC110 13.2 9.5 78% 75.62 0.0
09 05:55 Calm 16.09 Mostly Cloudy BKN060 SCT075 BKN120 13.5 9.2 75% 75.64 0.0
09 05:35 Calm 16.09 Overcast OVC060 13.3 9.2 76% 75.64 0.0
09 05:15 Calm 16.09 Overcast OVC060 13.2 8.9 75% 75.67 0.0
09 04:55 Calm 16.09 Mostly Cloudy BKN060 13.5 8.5 72% 75.67 0.0
09 04:35 Calm 16.09 Partly Cloudy SCT060 13.4 8.1 71% 75.67 0.0
09 04:15 Calm 16.09 Fair CLR 13.3 7.9 70% 75.67 0.0
09 03:55 Calm 16.09 Fair CLR 13.1 7.8 70% 75.69 0.0
09 03:35 Calm 16.09 Fair CLR 13.2 7.3 68% 75.69 0.0
09 03:15 Calm 16.09 Fair CLR 13.2 7.3 68% 75.69 0.0
09 02:55 Calm 16.09 Fair CLR 13.2 7.1 67% 75.69 0.0
09 02:35 Calm 16.09 Partly Cloudy SCT110 13.3 7 66% 75.72 0.0
09 02:15 Calm 16.09 Fair CLR 13.1 7 67% 75.72 0.0
09 01:55 Calm 16.09 Fair CLR 12.9 6.5 19 12.4 65% 75.72 0.0
09 01:35 Calm 16.09 Fair CLR 12.8 6.5 66% 75.74 0.0
09 01:15 Calm 16.09 Fair CLR 13.8 6.1 60% 75.72 0.0
09 00:55 Calm 16.09 Fair CLR 13.8 6.3 61% 75.72 0.0
09 00:35 Calm 16.09 Fair CLR 14.3 5.7 57% 75.72 0.0
09 00:15 Calm 16.09 Fair CLR 13.2 6.2 63% 75.72 0.0
08 23:55 Calm 16.09 Fair CLR 15.3 5.6 53% 75.74 0.0
08 23:35 Calm 16.09 Fair CLR 15.1 6.3 56% 75.74 0.0
08 23:15 Calm 16.09 Fair CLR 14.8 6.8 59% 75.74 0.0
08 22:55 Calm 16.09 Fair CLR 15.1 6.3 56% 75.77 0.0
08 22:35 Calm 16.09 Fair CLR 15.5 6.2 54% 75.79 0.0
08 22:15 Calm 16.09 Fair CLR 15.5 6.2 54% 75.79 0.0
08 21:55 Calm 16.09 Fair CLR 15.4 5.9 53% 75.79 0.0
08 21:35 Calm 16.09 Fair CLR 15.4 6.4 55% 75.79 0.0
08 21:15 Calm 16.09 Fair CLR 16 6 52% 75.79 0.0
08 20:55 Calm 16.09 Fair CLR 16.5 6.1 50% 75.79 0.0
08 20:35 Calm 16.09 Fair CLR 16.7 6.1 50% 75.79 0.0
08 20:15 Calm 16.09 Fair CLR 18 5.9 45% 75.79 0.0
08 19:55 SW 19 G 26 16.09 Fair CLR 19.1 5.5 21.4 19.1 41% 75.79 0.0
08 19:35 SW 22 16.09 Fair CLR 19.5 5.3 40% 75.79 0.0
08 19:15 SW 19 G 26 16.09 Fair CLR 20 5.7 39% 75.82 0.0
08 18:55 SW 20 16.09 Fair CLR 20.4 5.8 39% 75.84 0.0
08 18:35 SW 20 G 26 16.09 Fair CLR 20.5 5.9 39% 75.84 0.0
08 18:15 SW 20 G 30 16.09 Fair CLR 20.5 5.6 38% 75.82 0.0
08 17:55 SW 26 G 31 16.09 Fair CLR 20.7 5.1 36% 75.82 0.0
08 17:35 SW 22 G 30 16.09 Fair CLR 20.9 5.7 37% 75.84 0.0
08 17:15 Calm 16.09 Fair CLR 20.8 6.1 39% 75.84 0.0
08 16:55 SW 13 16.09 Fair CLR 20.9 6.3 39% 75.87 0.0
08 16:35 W 20 G 31 16.09 Fair CLR 21.1 6.6 39% 75.9 0.0
08 16:15 SW 17 G 31 16.09 Fair CLR 21 6.5 39% 75.92 0.0
08 15:55 W 13 G 30 16.09 Fair CLR 20.9 5.3 36% 75.95 0.0
08 15:35 SW 20 G 33 16.09 Fair CLR 20.8 6 38% 75.97 0.0
08 15:15 SW 20 G 35 16.09 Fair CLR 20.6 5.4 37% 76 0.0
08 14:55 W 15 16.09 Fair CLR 20.5 5.4 37% 76 0.0
08 14:35 S 7 G 28 16.09 Fair CLR 20.3 5.7 39% 76 0.0
08 14:15 Calm 16.09 Fair CLR 20.5 6 39% 75.97 0.0
08 13:55 S 24 G 33 16.09 Fair CLR 20.2 5.9 39% 76.02 0.0
08 13:35 S 24 16.09 Fair CLR 20.1 5.8 39% 76.05 0.0
08 13:15 S 19 G 28 16.09 Fair CLR 20 6.1 40% 76.07 0.0
08 12:55 SW 13 16.09 Fair CLR 20 5.8 40% 76.12 0.0
08 12:35 SW 24 G 33 16.09 Fair CLR 19.2 5.5 41% 76.15 0.0
08 12:15 Calm 16.09 Fair CLR 19.5 6.4 43% 76.17 0.0
08 11:55 SW 7 16.09 Fair CLR 18.9 6.7 45% 76.2 0.0
08 11:15 Calm 16.09 Fair CLR 18.1 6.4 47% 76.23 0.0
08 10:55 Calm 16.09 Fair CLR 17.5 5.6 46% 76.23 0.0
08 10:35 Calm 16.09 Fair CLR 16.4 5.9 50% 76.23 0.0
08 10:15 Calm 16.09 Fair CLR 15.8 5.8 52% 76.25 0.0
08 09:55 Calm 16.09 Fair CLR 14.6 5.5 55% 76.25 0.0
08 09:35 Calm 16.09 Fair CLR 13.4 5.2 58% 76.25 0.0
08 09:15 Calm 16.09 Fair CLR 12.2 5.3 63% 76.23 0.0
08 08:55 Calm 16.09 Fair CLR 10.8 4.5 65% 76.25 0.0
08 08:35 Calm 16.09 Fair CLR 9.5 4.1 69% 76.25 0.0
08 08:15 Calm 16.09 Fair CLR 8 3.9 76% 76.25 0.0
08 07:55 Calm 16.09 Fair CLR 7.1 4 7.1 3 81% 76.23 0.0
08 07:35 Calm 16.09 Fair CLR 5.6 3.4 86% 76.23 0.0
08 07:15 Calm 16.09 Fair CLR 4 3 93% 76.2 0.0
08 06:55 Calm 16.09 Fair CLR 3.5 2.8 95% 76.2 0.0
08 06:35 Calm 16.09 Fair CLR 3.5 3 97% 76.2 0.0
08 06:15 Calm 16.09 Fair CLR 3.2 2.7 97% 76.2 0.0
08 05:55 Calm 16.09 Fair CLR 3.5 2.9 96% 76.17 0.0
08 05:35 Calm 16.09 Fair CLR 3.5 2.8 95% 76.2 0.0
08 05:15 Calm 16.09 Fair CLR 3.3 2.5 95% 76.2 0.0
08 04:55 Calm 16.09 Fair CLR 4 2.6 91% 76.2 0.0
08 04:35 Calm 16.09 Fair CLR 5.2 2.5 83% 76.2 0.0
08 04:15 Calm 16.09 Fair CLR 4.4 2.7 89% 76.2 0.0
08 03:55 Calm 16.09 Fair CLR 4.7 3.1 90% 76.2 0.0
08 03:35 Calm 16.09 Fair CLR 5.2 2.9 85% 76.2 0.0
08 03:15 Calm 16.09 Fair CLR 4.4 3.8 96% 76.2 0.0
08 02:55 Calm 16.09 Fair CLR 4.2 3.3 94% 76.2 0.0
08 02:35 Calm 16.09 Fair CLR 5.4 3.1 85% 76.2 0.0
08 02:15 Calm 16.09 Fair CLR 5.5 3.8 89% 76.23 0.0
08 01:55 Calm 16.09 Fair CLR 5 3.6 15.4 4.1 91% 76.23 0.0
08 01:35 Calm 16.09 Fair CLR 4.1 2.5 89% 76.23 0.0
08 01:15 Calm 16.09 Fair CLR 5.3 3.2 86% 76.23 0.0
08 00:55 Calm 16.09 Fair CLR 6.6 3.3 80% 76.23 0.0
08 00:35 Calm 16.09 Fair CLR 7 3 76% 76.25 0.0
08 00:15 Calm 16.09 Fair CLR 6.5 3.2 80% 76.23 0.0
07 23:55 Calm 16.09 Fair CLR 6.2 3.8 85% 76.23 0.0
07 23:35 Calm 16.09 Fair CLR 6.5 3.9 84% 76.23 0.0
07 23:15 Calm 16.09 Fair CLR 7.2 3.2 76% 76.23 0.0
07 22:55 Calm 16.09 Fair CLR 10 1.5 56% 76.23 0.0
07 22:35 Calm 16.09 Fair CLR 11 1 50% 76.23 0.0
07 22:15 Calm 16.09 Fair CLR 11.2 1 50% 76.2 0.0
07 21:55 Calm 16.09 Fair CLR 11.5 0.7 48% 76.2 0.0
07 21:35 Calm 16.09 Fair CLR 12 0.6 46% 76.17 0.0
07 21:15 Calm 16.09 Fair CLR 12.2 0.7 46% 76.15 0.0
07 20:55 Calm 16.09 Fair CLR 12.2 1.3 48% 76.12 0.0
07 20:35 Calm 16.09 Fair CLR 14.2 0 38% 76.12 0.0
07 20:15 Calm 16.09 Fair CLR 14.6 0.2 38% 76.1 0.0
07 19:55 Calm 16.09 Fair CLR 15.5 -0.5 17.3 15.2 34% 76.1 0.0
07 19:35 Calm 16.09 Fair CLR 15.7 -0.7 33% 76.1 0.0
07 19:15 Calm 16.09 Fair CLR 16.2 -0.4 32% 76.1 0.0
07 18:55 Calm 16.09 Fair CLR 16.5 0 33% 76.1 0.0
07 18:35 Calm 16.09 Fair CLR 16.3 -1.4 30% 76.12 0.0
07 18:15 Calm 16.09 Fair CLR 16.3 -0.4 32% 76.1 0.0
07 17:55 Calm 16.09 Fair CLR 16.7 -0.2 32% 76.1 0.0
07 17:35 Calm 16.09 Fair CLR 16.7 -1.2 30% 76.1 0.0
07 17:15 Calm 16.09 Fair CLR 17.3 0.2 32% 76.1 0.0
07 16:15 Calm 16.09 Fair CLR 16.8 -0.7 31% 76.1 0.0
07 15:55 N 6 16.09 Fair CLR 16.5 -0.2 32% 76.12 0.0
07 15:35 Calm 16.09 Fair CLR 16.8 -0.1 32% 76.12 0.0
07 15:15 Calm 16.09 Fair CLR 16 -0.5 33% 76.12 0.0
07 14:55 Calm 16.09 Fair CLR 16.1 0.1 34% 76.15 0.0
07 14:15 NW 9 16.09 Fair CLR 15.3 -0.9 33% 76.15 0.0
07 13:55 NW 7 16.09 Fair CLR 15.2 -0.3 15.5 8.1 35% 76.17 0.0
07 13:35 Calm 16.09 Fair CLR 15.2 0.1 36% 76.2 0.0
07 13:15 Calm 16.09 Fair CLR 14.9 -0.2 36% 76.2 0.0
07 12:55 N 6 16.09 Fair CLR 14.6 0.5 38% 76.23 0.0
07 12:35 N 11 16.09 Fair CLR 15.2 1.3 39% 76.25 0.0
07 12:15 N 7 16.09 Fair CLR 14.3 0.1 38% 76.25 0.0
07 11:55 Calm 16.09 Fair CLR 14.2 1.4 42% 76.25 0.0
07 11:35 Calm 16.09 Fair CLR 14 0.3 39% 76.25 0.0
07 11:15 Calm 16.09 Fair CLR 13.6 0.5 41% 76.25 0.0
07 10:55 Calm 16.09 Fair CLR 13.1 0.2 41% 76.23 0.0
07 10:35 Calm 16.09 Fair CLR 13 1.5 46% 76.23 0.0
07 10:15 Calm 16.09 Fair CLR 12.6 1.6 47% 76.23 0.0
07 09:55 Calm 16.09 Fair CLR 11.7 0.2 45% 76.23 0.0
07 09:35 NE 13 16.09 Fair CLR 11.5 0.7 48% 76.23 0.0
07 09:15 NE 13 16.09 Fair CLR 10.7 1.3 53% 76.23 0.0
07 08:55 Calm 16.09 Fair CLR 10.1 1.8 57% 76.23 0.0
07 08:35 Calm 16.09 Fair CLR 9.5 2.1 60% 76.23 0.0
07 08:15 NE 7 16.09 Fair CLR 8.8 2.9 67% 8 76.23 0.0
07 07:55 Calm 16.09 Fair CLR 8.1 3.1 9.7 6.6 71% 76.23 0.0
07 07:35 Calm 16.09 Fair CLR 7.5 3.6 77% 76.23 0.0
07 07:15 Calm 16.09 Fair CLR 7 3.6 79% 76.2 0.0
07 06:55 Calm 16.09 Fair CLR 6.8 3.5 80% 76.2 0.0
07 06:35 Calm 16.09 Fair CLR 7 3.6 79% 76.17 0.0
07 06:15 Calm 16.09 Fair CLR 7.1 3.5 78% 76.17 0.0
07 05:55 Calm 16.09 Fair CLR 7.1 3.7 79% 76.15 0.0
07 05:35 Calm 16.09 Fair CLR 6.9 4 82% 76.15 0.0
07 05:15 Calm 16.09 Fair CLR 7.3 4.2 81% 76.15 0.0
07 04:55 Calm 16.09 Fair CLR 7.6 4.5 81% 76.15 0.0
07 04:35 Calm 16.09 Fair CLR 7.7 4.7 82% 76.12 0.0
07 04:15 Calm 16.09 Fair CLR 8.1 4.7 79% 76.12 0.0
07 03:55 Calm 16.09 Fair CLR 8.7 4.6 76% 76.12 0.0
07 03:35 Calm 16.09 Fair CLR 9 4.5 74% 76.12 0.0
07 03:15 Calm 16.09 Fair CLR 8.8 4.7 76% 76.1 0.0
07 02:55 Calm 16.09 Fair CLR 9 5 76% 76.12 0.0
07 02:35 Calm 16.09 Fair CLR 9.2 5.3 77% 76.12 0.0
07 02:15 Calm 16.09 Fair CLR 9.7 5.3 74% 76.12 0.0
07 01:55 Calm 16.09 Fair CLR 9.7 5.7 13.5 9.7 76% 76.12 0.0
07 01:35 Calm 16.09 Fair CLR 10.1 6 76% 76.15 0.0
07 01:15 Calm 16.09 Fair CLR 10.5 6 74% 76.12 0.0
07 00:55 Calm 16.09 Fair CLR 10.8 6 72% 76.12 0.0
07 00:35 Calm 16.09 Fair CLR 10.3 6.7 79% 76.1 0.0
07 00:15 Calm 16.09 Fair CLR 10 7.2 83% 76.12 0.0
06 23:55 Calm 16.09 Fair CLR 10.6 6.7 77% 76.15 0.0
06 23:35 Calm 16.09 Fair CLR 10.8 6.6 76% 76.15 0.0
06 23:15 Calm 16.09 Fair CLR 11.1 6.7 75% 76.17 0.0
06 22:55 Calm 16.09 Fair CLR 11.2 6.5 73% 76.17 0.0
06 22:35 Calm 16.09 Fair CLR 11.5 6.2 70% 76.15 0.0
06 22:15 Calm 16.09 Fair CLR 11.9 5.8 67% 76.12 0.0
06 21:55 Calm 16.09 Fair CLR 12 5.6 65% 76.1 0.0
06 21:35 Calm 16.09 Fair CLR 12.2 5.7 65% 76.07 0.0
06 21:15 Calm 16.09 Fair CLR 12.2 5.6 64% 76.05 0.0
06 20:55 Calm 16.09 Fair CLR 12.6 5.3 61% 76.07 0.0
06 20:35 Calm 16.09 Fair CLR 12.8 6 64% 76.05 0.0
06 20:15 Calm 16.09 Partly Cloudy SCT055 13.3 5.6 60% 76.07 0.0
06 19:55 Calm 16.09 Mostly Cloudy BKN055 13.6 4.8 17 13.6 56% 76.07 0.0
06 19:35 Calm 16.09 Overcast OVC055 13.7 4.7 55% 76.02 0.0
06 19:15 Calm 16.09 Overcast OVC055 14 4.6 53% 76.05 0.0
06 18:55 Calm 16.09 Overcast OVC049 14.1 4.8 54% 76.05 0.0
06 18:35 Calm 16.09 Overcast OVC049 14.4 4.6 52% 76.07 0.0
06 18:15 Calm 16.09 Mostly Cloudy BKN049 14.5 5.1 54% 76 0.0
06 17:55 Calm 16.09 Fair CLR 14.9 5.2 53% 76.02 0.0
06 17:35 Calm 16.09 Partly Cloudy SCT065 15 5.6 54% 75.95 0.0
06 17:15 Calm 16.09 Overcast SCT049 OVC065 15.1 5.5 53% 75.97 0.0
06 16:55 Calm 16.09 Overcast SCT049 OVC065 15.3 5.6 53% 76.05 0.0
06 16:35 Calm 16.09 Overcast BKN049 OVC065 15.5 5.6 52% 76 0.0
06 16:15 Calm 16.09 Overcast OVC047 15.5 5.6 52% 76.02 0.0
06 15:55 Calm 16.09 Overcast OVC047 15.6 5.7 52% 76.02 0.0
06 15:35 Calm 16.09 Overcast BKN047 OVC065 15.2 5.9 54% 76.02 0.0
06 15:15 Calm 16.09 Overcast OVC045 15.7 6.1 53% 76.05 0.0
06 14:55 Calm 16.09 Overcast OVC045 16.8 6.4 51% 76.02 0.0
06 14:35 Calm 16.09 Mostly Cloudy BKN045 16.5 6.7 53% 76 0.0
06 14:15 Calm 16.09 Overcast OVC045 15.8 5.8 52% 75.97 0.0
06 13:55 N 7 16.09 Mostly Cloudy BKN047 15.6 5.9 15.7 7.6 53% 76 0.0
06 13:35 Calm 16.09 Partly Cloudy SCT045 15 6 55% 76.02 0.0
06 13:15 Calm 16.09 Fair CLR 14.6 7.4 62% 76.02 0.0
06 12:55 Calm 16.09 Fair CLR 13.7 7 64% 76 0.0
06 12:35 Calm 16.09 Partly Cloudy SCT025 13.5 7.1 65% 76.02 0.0
06 12:15 Calm 16.09 Partly Cloudy SCT025 13 7 67% 76.05 0.0
06 11:55 Calm 16.09 Partly Cloudy SCT033 12.9 6.6 66% 76.05 0.0
06 11:35 Calm 16.09 Overcast OVC031 12.1 6.2 67% 76.02 0.0
06 11:15 N 7 16.09 Overcast OVC031 12 6.6 70% 76 0.0
06 10:55 NE 13 16.09 Mostly Cloudy BKN031 11.8 6.2 69% 75.97 0.0
06 10:35 NE 6 16.09 Mostly Cloudy BKN031 11.2 5.9 70% 75.97 0.0
06 10:15 Calm 16.09 Mostly Cloudy BKN031 10 5.7 75% 75.97 0.0
06 09:55 Calm 16.09 Fair CLR 9.1 5.7 79% 75.97 0.0
06 09:35 Calm 16.09 Fair CLR 8.5 6.2 86% 75.95 0.0
06 09:15 Calm 16.09 Partly Cloudy SCT012 8 5.9 87% 75.95 0.0
06 08:55 NE 13 16.09 Overcast OVC012 7.7 6 89% 6 75.92 0.0
06 08:35 N 13 16.09 Overcast BKN012 OVC100 7.6 6.1 90% 6 75.9 0.0
06 08:15 Calm 16.09 Overcast SCT012 SCT026 OVC100 7.6 6.3 92% 75.9 0.0
06 07:55 Calm 16.09 Overcast SCT014 SCT026 OVC100 7.6 6.9 14.5 7.5 95% 75.87 0.0 0.97
Date Time (edt) Wind (kph) Vis. (km) Weather Sky Cond. Air Dwpt Max. Min. Relative Humidity Wind Chill (°C) Heat Index (°C) altimeter (cm) sea level (mb) 1 hr 3 hr 6 hr
6 hour
Temperature (ºC) Pressure Precipitation (cm)